Time;durP1;ratioP1;P1;durP2;ratioP2;P2;SDS_P1;SDS_P2;PMS_P1;PMS_P2;Temp;Humidity;BMP_temperature;BMP_pressure;BME280_temperature;BME280_humidity;BME280_pressure;Samples;Min_cycle;Max_cycle;Signal;HPM_P1;HPM_P2
2022/08/07 00:01:00;;;;;;;1.93;1.70;;;;;13.40;102134.00;;;;10437885;28;20276;-79
2022/08/07 00:06:22;;;;;;;2.60;1.70;;;;;13.40;102133.00;;;;10452420;28;20239;-79
2022/08/07 00:11:34;;;;;;;1.93;1.70;;;;;13.30;102132.00;;;;10481995;28;20213;-79
2022/08/07 00:16:55;;;;;;;6.30;2.20;;;;;13.20;102127.00;;;;10464651;28;20303;-79
2022/08/07 00:21:57;;;;;;;2.43;1.60;;;;;13.10;102130.00;;;;10448909;28;20707;-79
2022/08/07 00:27:04;;;;;;;3.97;1.60;;;;;13.00;102125.00;;;;10448720;28;20219;-79
2022/08/07 00:32:10;;;;;;;2.80;2.00;;;;;12.90;102121.00;;;;10445639;28;20201;-79
2022/08/07 00:37:16;;;;;;;5.23;2.13;;;;;12.80;102105.00;;;;10462478;28;20195;-77
2022/08/07 00:42:23;;;;;;;2.53;2.30;;;;;12.70;102107.00;;;;10438355;28;20183;-77
2022/08/07 00:47:30;;;;;;;3.27;2.10;;;;;12.60;102100.00;;;;10430627;28;20251;-77
2022/08/07 00:52:52;;;;;;;2.77;2.20;;;;;12.50;102098.00;;;;10411422;28;20297;-77
2022/08/07 00:57:55;;;;;;;4.83;2.10;;;;;12.50;102097.00;;;;10413202;28;20537;-77
2022/08/07 01:02:57;;;;;;;2.40;2.20;;;;;12.50;102095.00;;;;10449652;28;20217;-77
2022/08/07 01:07:59;;;;;;;6.47;2.63;;;;;12.50;102089.00;;;;10465338;28;20565;-77
2022/08/07 01:13:01;;;;;;;3.67;2.37;;;;;12.40;102083.00;;;;10431865;28;20220;-77
2022/08/07 01:18:07;;;;;;;2.80;2.40;;;;;12.40;102089.00;;;;10448445;28;20627;-77
2022/08/07 01:23:13;;;;;;;3.87;2.77;;;;;12.30;102081.00;;;;10447739;28;20189;-77
2022/08/07 01:28:17;;;;;;;4.63;3.03;;;;;12.20;102083.00;;;;10448145;28;20236;-77
2022/08/07 01:33:30;;;;;;;5.33;2.70;;;;;12.10;102079.00;;;;10443653;28;20303;-77
2022/08/07 01:38:52;;;;;;;5.17;3.03;;;;;12.10;102072.00;;;;10451176;28;20809;-77
2022/08/07 01:43:57;;;;;;;4.80;3.00;;;;;12.10;102070.00;;;;10448283;28;20309;-77
2022/08/07 01:49:03;;;;;;;5.77;3.43;;;;;12.00;102066.00;;;;10438941;28;20201;-77
2022/08/07 01:54:09;;;;;;;3.23;2.93;;;;;12.00;102068.00;;;;10422424;28;20214;-77
2022/08/07 01:59:45;;;;;;;2.70;2.50;;;;;12.00;102058.00;;;;10405780;28;20213;-77
2022/08/07 02:04:55;;;;;;;6.00;3.10;;;;;12.00;102066.00;;;;10463409;28;20702;-77
2022/08/07 02:10:05;;;;;;;4.17;3.03;;;;;11.90;102066.00;;;;10438509;28;20241;-77
2022/08/07 02:15:12;;;;;;;5.43;2.57;;;;;11.80;102074.00;;;;10428619;28;20213;-77
2022/08/07 02:20:20;;;;;;;4.97;2.97;;;;;11.80;102069.00;;;;10406856;28;20233;-77
2022/08/07 02:25:30;;;;;;;3.47;3.13;;;;;11.70;102047.00;;;;10389538;28;20186;-77
2022/08/07 02:30:54;;;;;;;4.03;2.97;;;;;11.60;102055.00;;;;10407414;28;20680;-76
2022/08/07 02:35:59;;;;;;;3.63;3.30;;;;;11.60;102050.00;;;;10445615;28;20413;-77
2022/08/07 02:41:22;;;;;;;6.77;3.17;;;;;11.50;102051.00;;;;10431217;28;20184;-77
2022/08/07 02:46:36;;;;;;;4.00;2.93;;;;;11.50;102043.00;;;;10461235;28;20682;-76
2022/08/07 02:51:55;;;;;;;7.23;3.90;;;;;11.50;102039.00;;;;10445124;28;20244;-76
2022/08/07 02:57:00;;;;;;;7.13;3.93;;;;;11.40;102026.00;;;;10445282;28;20608;-76
2022/08/07 03:02:03;;;;;;;3.50;3.00;;;;;11.40;102035.00;;;;10443680;28;20244;-77
2022/08/07 03:07:06;;;;;;;7.07;4.27;;;;;11.30;102030.00;;;;10428644;28;20250;-76
2022/08/07 03:12:15;;;;;;;3.93;3.53;;;;;11.30;102041.00;;;;10445318;28;20220;-77
2022/08/07 03:17:36;;;;;;;7.37;4.40;;;;;11.30;102034.00;;;;10456139;28;20208;-76
2022/08/07 03:22:58;;;;;;;5.03;4.53;;;;;11.30;102037.00;;;;10431025;28;20184;-76
2022/08/07 03:28:04;;;;;;;6.80;4.93;;;;;11.30;102044.00;;;;10444533;28;20209;-76
2022/08/07 03:33:26;;;;;;;8.07;5.17;;;;;11.30;102045.00;;;;10443647;28;20216;-76
2022/08/07 03:38:43;;;;;;;6.00;5.33;;;;;11.30;102041.00;;;;10419280;28;20288;-76
2022/08/07 03:43:46;;;;;;;9.20;4.73;;;;;11.20;102051.00;;;;10412191;28;20190;-77
2022/08/07 03:49:01;;;;;;;6.73;4.83;;;;;11.20;102056.00;;;;10453079;28;20181;-79
2022/08/07 03:54:12;;;;;;;6.80;4.20;;;;;11.00;102046.00;;;;10435741;28;20308;-76
2022/08/07 03:59:36;;;;;;;8.33;4.30;;;;;11.00;102055.00;;;;10453669;28;20276;-76
2022/08/07 04:04:49;;;;;;;5.30;4.33;;;;;11.00;102060.00;;;;10445893;28;20222;-76
2022/08/07 04:09:52;;;;;;;5.47;4.33;;;;;10.90;102048.00;;;;10445679;28;20277;-76
2022/08/07 04:14:58;;;;;;;6.10;4.20;;;;;10.90;102050.00;;;;10425022;28;20245;-76
2022/08/07 04:20:07;;;;;;;6.80;4.53;;;;;10.80;102046.00;;;;10436375;28;20201;-77
2022/08/07 04:25:11;;;;;;;6.30;4.60;;;;;10.80;102057.00;;;;10449784;28;20188;-77
2022/08/07 04:30:17;;;;;;;6.57;4.97;;;;;10.80;102047.00;;;;10465955;28;20225;-76
2022/08/07 04:35:45;;;;;;;5.60;5.10;;;;;10.90;102061.00;;;;10451903;28;20217;-76
2022/08/07 04:40:56;;;;;;;8.10;5.00;;;;;10.90;102058.00;;;;10450511;28;20177;-76
2022/08/07 04:46:28;;;;;;;6.20;4.53;;;;;11.00;102064.00;;;;10449995;28;20405;-76
2022/08/07 04:51:53;;;;;;;8.03;6.20;;;;;11.20;102060.00;;;;10449051;28;20201;-76
2022/08/07 04:57:13;;;;;;;7.13;5.40;;;;;11.30;102072.00;;;;10448141;28;20262;-79
2022/08/07 05:02:59;;;;;;;8.23;5.40;;;;;11.40;102073.00;;;;10412932;28;20197;-76
2022/08/07 05:08:06;;;;;;;8.53;5.53;;;;;11.60;102076.00;;;;10431660;28;20186;-76
2022/08/07 05:13:25;;;;;;;7.27;5.80;;;;;11.90;102084.00;;;;10447183;28;20209;-76
2022/08/07 05:18:53;;;;;;;6.77;5.43;;;;;12.20;102082.00;;;;10481906;28;20194;-76
2022/08/07 05:24:00;;;;;;;7.17;6.47;;;;;12.60;102092.00;;;;10389588;28;20229;-77
2022/08/07 05:29:09;;;;;;;9.50;7.20;;;;;12.90;102100.00;;;;10421944;28;20237;-76
2022/08/07 05:34:15;;;;;;;10.60;8.00;;;;;13.30;102109.00;;;;10417210;28;20209;-76
2022/08/07 05:39:22;;;;;;;10.73;8.07;;;;;13.70;102107.00;;;;10446252;28;20205;-77
2022/08/07 05:44:44;;;;;;;12.87;8.37;;;;;14.20;102111.00;;;;10407921;28;20190;-76
2022/08/07 05:50:09;;;;;;;9.73;7.60;;;;;14.70;102110.00;;;;10429451;28;20198;-76
2022/08/07 05:55:11;;;;;;;11.23;7.60;;;;;15.20;102101.00;;;;10388176;28;20210;-76
2022/08/07 06:00:20;;;;;;;9.63;6.83;;;;;15.70;102098.00;;;;10412789;28;20261;-79
2022/08/07 06:05:33;;;;;;;7.67;6.87;;;;;16.50;102094.00;;;;10419500;28;20240;-76
2022/08/07 06:10:42;;;;;;;8.17;6.10;;;;;17.00;102097.00;;;;10407223;28;20189;-77
2022/08/07 06:15:48;;;;;;;7.30;5.95;;;;;17.50;102096.00;;;;10412786;28;20221;-77
2022/08/07 06:21:05;;;;;;;7.15;5.65;;;;;18.00;102107.00;;;;10431254;28;20365;-77
2022/08/07 06:26:28;;;;;;;6.45;4.72;;;;;18.40;102118.00;;;;10419291;28;20209;-77
2022/08/07 06:31:46;;;;;;;5.30;4.70;;;;;18.60;102117.00;;;;10401495;28;20194;-77
2022/08/07 06:36:55;;;;;;;7.03;4.30;;;;;18.90;102097.00;;;;10404277;28;20289;-77
2022/08/07 06:42:28;;;;;;;6.22;4.30;;;;;19.20;102102.00;;;;10415239;28;20211;-78
2022/08/07 06:47:43;;;;;;;5.85;4.43;;;;;19.40;102109.00;;;;10452574;28;20201;-77
2022/08/07 06:53:07;;;;;;;6.65;4.03;;;;;19.70;102103.00;;;;10421198;28;20687;-79
2022/08/07 06:58:34;;;;;;;7.28;4.05;;;;;20.00;102101.00;;;;10446758;28;20560;-77
2022/08/07 07:03:45;;;;;;;4.78;4.00;;;;;20.30;102087.00;;;;10443083;28;20703;-78
2022/08/07 07:09:25;;;;;;;6.13;4.28;;;;;20.80;102088.00;;;;10419760;28;20204;-78
2022/08/07 07:14:55;;;;;;;4.25;3.60;;;;;21.10;102108.00;;;;10386933;28;20209;-78
2022/08/07 07:20:01;;;;;;;5.47;3.65;;;;;21.40;102090.00;;;;10458551;28;20201;-77
2022/08/07 07:25:07;;;;;;;5.05;3.63;;;;;21.80;102090.00;;;;10434487;28;20276;-77
2022/08/07 07:30:34;;;;;;;4.72;3.78;;;;;22.30;102096.00;;;;10402691;28;20755;-77
2022/08/07 07:35:44;;;;;;;4.97;3.63;;;;;22.60;102090.00;;;;10425213;28;20210;-77
2022/08/07 07:41:10;;;;;;;4.38;3.60;;;;;23.00;102098.00;;;;10413536;28;20197;-77
2022/08/07 07:46:15;;;;;;;3.75;3.33;;;;;23.20;102091.00;;;;10394659;28;20653;-77
2022/08/07 07:51:38;;;;;;;4.07;3.42;;;;;23.50;102092.00;;;;10431635;28;20215;-78
2022/08/07 07:57:01;;;;;;;5.78;4.13;;;;;23.90;102088.00;;;;10436296;28;20284;-77
2022/08/07 08:02:06;;;;;;;6.07;3.53;;;;;24.10;102083.00;;;;10425409;28;20241;-77
2022/08/07 08:07:14;;;;;;;5.60;3.20;;;;;24.30;102082.00;;;;10394323;28;20205;-77
2022/08/07 08:12:21;;;;;;;4.72;3.75;;;;;24.50;102101.00;;;;10422036;28;20213;-77
2022/08/07 08:17:44;;;;;;;4.88;3.10;;;;;24.70;102088.00;;;;10450727;28;20189;-77
2022/08/07 08:28:30;;;;;;;3.53;3.22;;;;;25.40;102089.00;;;;10448831;28;20726;-78
2022/08/07 08:33:41;;;;;;;3.92;2.80;;;;;25.70;102078.00;;;;10432393;28;20729;-77
2022/08/07 08:38:52;;;;;;;4.13;2.72;;;;;25.80;102081.00;;;;10440801;28;20206;-78
2022/08/07 08:44:09;;;;;;;3.10;2.80;;;;;26.20;102072.00;;;;10408112;28;20190;-77
2022/08/07 08:49:46;;;;;;;3.50;2.80;;;;;26.50;102071.00;;;;10398693;28;20576;-78
2022/08/07 08:55:28;;;;;;;5.32;2.90;;;;;26.70;102070.00;;;;10447678;28;20576;-78
2022/08/07 09:00:56;;;;;;;5.80;3.20;;;;;27.30;102064.00;;;;10447432;28;20189;-78
2022/08/07 09:06:23;;;;;;;3.30;2.88;;;;;27.50;102075.00;;;;10422363;28;20206;-78
2022/08/07 09:11:47;;;;;;;4.05;3.03;;;;;27.70;102070.00;;;;10430727;28;20268;-78
2022/08/07 09:17:09;;;;;;;3.78;2.50;;;;;27.70;102073.00;;;;10464027;28;20568;-77
2022/08/07 09:23:00;;;;;;;5.82;2.90;;;;;28.30;102069.00;;;;10431469;28;20201;-78
2022/08/07 09:28:37;;;;;;;3.63;2.20;;;;;28.20;102062.00;;;;10428151;28;20224;-78
2022/08/07 09:34:21;;;;;;;5.10;2.53;;;;;28.30;102066.00;;;;10432587;28;20568;-78
2022/08/07 09:40:02;;;;;;;4.55;2.58;;;;;28.80;102058.00;;;;10443884;28;20209;-78
2022/08/07 09:45:34;;;;;;;3.83;2.53;;;;;29.30;102064.00;;;;10419502;28;20185;-78
2022/08/07 09:51:27;;;;;;;4.30;2.13;;;;;29.20;102060.00;;;;10411697;28;20699;-78
2022/08/07 09:57:06;;;;;;;3.25;1.52;;;;;29.40;102048.00;;;;10440478;28;20712;-78
2022/08/07 10:02:33;;;;;;;4.82;2.00;;;;;29.80;102038.00;;;;10431249;28;20320;-78
2022/08/07 10:08:04;;;;;;;2.88;2.00;;;;;30.30;102033.00;;;;10420528;28;20232;-78
2022/08/07 10:13:28;;;;;;;2.75;1.95;;;;;30.50;102023.00;;;;10452408;28;20221;-78
2022/08/07 10:19:10;;;;;;;3.25;1.85;;;;;30.60;102021.00;;;;10458109;28;20246;-78
2022/08/07 10:24:24;;;;;;;2.78;1.95;;;;;30.80;102020.00;;;;10430130;28;20190;-78
2022/08/07 10:29:51;;;;;;;2.83;2.15;;;;;30.50;102020.00;;;;10435962;28;20970;-78
2022/08/07 10:35:12;;;;;;;3.20;2.20;;;;;30.70;102009.00;;;;10411030;28;20206;-78
2022/08/07 10:40:37;;;;;;;3.03;1.95;;;;;30.80;101998.00;;;;10460565;28;20197;-78
2022/08/07 10:45:58;;;;;;;2.20;1.85;;;;;30.90;101999.00;;;;10459627;28;20190;-76
2022/08/07 10:51:09;;;;;;;3.00;1.83;;;;;31.20;101993.00;;;;10411280;28;20228;-76
2022/08/07 10:56:56;;;;;;;2.78;2.10;;;;;31.70;101990.00;;;;10428184;28;20201;-76
2022/08/07 11:02:08;;;;;;;2.67;1.60;;;;;31.40;101979.00;;;;10432372;28;20218;-77
2022/08/07 11:07:41;;;;;;;3.95;1.83;;;;;31.40;101977.00;;;;10391208;28;20209;-78
2022/08/07 11:13:21;;;;;;;2.78;1.73;;;;;32.10;101979.00;;;;10418678;28;20260;-78
2022/08/07 11:18:50;;;;;;;2.72;1.48;;;;;31.80;101963.00;;;;10411085;28;20644;-79
2022/08/07 11:24:09;;;;;;;2.03;1.83;;;;;31.80;101967.00;;;;10418493;28;20206;-79
2022/08/07 11:29:38;;;;;;;3.22;1.55;;;;;32.30;101949.00;;;;10438183;28;20190;-79
2022/08/07 11:34:49;;;;;;;3.38;2.20;;;;;32.40;101943.00;;;;10424852;28;20687;-79
2022/08/07 11:40:13;;;;;;;2.90;1.70;;;;;32.60;101949.00;;;;10402399;28;20190;-79
2022/08/07 11:45:36;;;;;;;2.13;1.75;;;;;32.30;101946.00;;;;10400564;28;20187;-79
2022/08/07 11:50:59;;;;;;;2.35;1.77;;;;;32.60;101941.00;;;;10401364;28;20198;-79
2022/08/07 11:56:39;;;;;;;2.00;1.55;;;;;32.30;101935.00;;;;10392395;28;20221;-79
2022/08/07 12:01:55;;;;;;;2.97;1.77;;;;;32.00;101929.00;;;;10391144;28;20806;-79
2022/08/07 12:07:27;;;;;;;2.85;1.88;;;;;32.20;101919.00;;;;10446269;28;20230;-79
2022/08/07 12:12:55;;;;;;;3.30;1.90;;;;;32.30;101925.00;;;;10412532;28;20228;-79
2022/08/07 12:18:21;;;;;;;1.75;1.50;;;;;31.70;101922.00;;;;10462440;28;20201;-79
2022/08/07 12:23:43;;;;;;;3.22;1.67;;;;;31.60;101922.00;;;;10440722;28;20213;-80
2022/08/07 12:29:16;;;;;;;3.33;1.45;;;;;32.20;101918.00;;;;10427480;28;20185;-79
2022/08/07 12:34:40;;;;;;;1.88;1.73;;;;;32.20;101915.00;;;;10446224;28;20447;-79
2022/08/07 12:39:53;;;;;;;1.40;1.30;;;;;32.30;101900.00;;;;10429633;28;20731;-79
2022/08/07 12:45:06;;;;;;;4.20;1.42;;;;;32.00;101897.00;;;;10425692;28;20271;-78
2022/08/07 12:50:23;;;;;;;1.98;1.58;;;;;32.00;101897.00;;;;10424039;28;20190;-78
2022/08/07 12:55:54;;;;;;;2.33;1.60;;;;;32.00;101896.00;;;;10444470;28;20214;-79
2022/08/07 13:01:05;;;;;;;1.83;1.50;;;;;32.00;101887.00;;;;10431246;28;20298;-79
2022/08/07 13:06:28;;;;;;;1.67;1.42;;;;;31.70;101891.00;;;;10482428;28;20178;-78
2022/08/07 13:12:13;;;;;;;1.65;1.50;;;;;31.30;101884.00;;;;10477607;28;20656;-79
2022/08/07 13:17:29;;;;;;;1.95;1.38;;;;;31.90;101878.00;;;;10434433;28;20204;-78
2022/08/07 13:22:51;;;;;;;1.30;1.05;;;;;32.50;101877.00;;;;10481947;28;20538;-78
2022/08/07 13:28:01;;;;;;;2.53;1.58;;;;;32.90;101872.00;;;;10443449;28;20182;-78
2022/08/07 13:33:48;;;;;;;2.72;1.30;;;;;33.60;101863.00;;;;10443085;28;20734;-78
2022/08/07 13:39:34;;;;;;;1.60;1.17;;;;;34.10;101863.00;;;;10480375;28;20198;-79
2022/08/07 13:44:58;;;;;;;1.60;1.40;;;;;35.00;101855.00;;;;10480491;28;20189;-79
2022/08/07 13:50:23;;;;;;;1.90;1.25;;;;;35.90;101852.00;;;;10453669;28;20240;-78
2022/08/07 13:55:47;;;;;;;1.80;1.08;;;;;36.30;101851.00;;;;10408440;28;20688;-78
2022/08/07 14:01:00;;;;;;;1.42;1.10;;;;;36.70;101848.00;;;;10405598;28;20209;-78
2022/08/07 14:06:12;;;;;;;1.17;1.05;;;;;35.90;101840.00;;;;10457884;28;20272;-79
2022/08/07 14:11:17;;;;;;;2.60;1.50;;;;;37.00;101830.00;;;;10403311;28;20740;-78
2022/08/07 14:16:32;;;;;;;1.80;1.30;;;;;36.60;101833.00;;;;10461952;28;20217;-79
2022/08/07 14:21:42;;;;;;;3.08;0.90;;;;;37.50;101842.00;;;;10430979;28;20220;-79
2022/08/07 14:27:08;;;;;;;1.58;1.20;;;;;35.20;101820.00;;;;10430262;28;20190;-79
2022/08/07 14:32:37;;;;;;;4.10;1.25;;;;;38.20;101820.00;;;;10436317;28;20233;-78
2022/08/07 14:37:43;;;;;;;1.48;1.10;;;;;38.30;101814.00;;;;10436886;28;20194;-79
2022/08/07 14:43:14;;;;;;;2.42;1.42;;;;;39.30;101818.00;;;;10436948;28;20695;-79
2022/08/07 14:48:40;;;;;;;2.72;1.02;;;;;39.50;101813.00;;;;10447410;28;20239;-79
2022/08/07 14:53:44;;;;;;;1.60;1.15;;;;;39.80;101812.00;;;;10428831;28;20213;-79
2022/08/07 14:59:10;;;;;;;1.20;1.08;;;;;40.10;101795.00;;;;10480118;28;20190;-79
2022/08/07 15:04:38;;;;;;;3.83;1.27;;;;;39.30;101804.00;;;;10428762;28;20710;-78
2022/08/07 15:09:56;;;;;;;3.50;1.52;;;;;36.70;101811.00;;;;10413794;28;20186;-79
2022/08/07 15:15:12;;;;;;;1.35;1.20;;;;;34.10;101810.00;;;;10462028;28;20248;-79
2022/08/07 15:20:27;;;;;;;1.75;1.00;;;;;32.90;101794.00;;;;10435592;28;20619;-79
2022/08/07 15:25:58;;;;;;;1.40;1.27;;;;;32.10;101798.00;;;;10440357;28;20185;-78
2022/08/07 15:31:03;;;;;;;3.28;1.17;;;;;37.20;101789.00;;;;10460360;28;20213;-78
2022/08/07 15:36:08;;;;;;;1.10;1.00;;;;;32.60;101800.00;;;;10444112;28;20221;-78
2022/08/07 15:41:16;;;;;;;1.10;1.00;;;;;29.60;101780.00;;;;10441560;28;20194;-78
2022/08/07 15:46:40;;;;;;;1.42;1.10;;;;;34.00;101755.00;;;;10468205;28;20200;-79
2022/08/07 15:51:55;;;;;;;3.28;1.33;;;;;36.70;101772.00;;;;10469555;28;20310;-78
2022/08/07 15:57:00;;;;;;;1.40;1.08;;;;;32.20;101775.00;;;;10466522;28;20691;-77
2022/08/07 16:02:04;;;;;;;3.13;1.27;;;;;29.00;101773.00;;;;10441645;28;20226;-78
2022/08/07 16:07:10;;;;;;;3.65;1.58;;;;;28.00;101763.00;;;;10442597;28;20179;-78
2022/08/07 16:12:38;;;;;;;1.50;1.40;;;;;27.40;101766.00;;;;10412952;28;20589;-78
2022/08/07 16:18:00;;;;;;;2.22;1.02;;;;;26.60;101757.00;;;;10470945;28;20210;-78
2022/08/07 16:23:16;;;;;;;2.35;1.38;;;;;26.30;101770.00;;;;10482439;28;20548;-77
2022/08/07 16:29:02;;;;;;;1.73;1.20;;;;;26.00;101750.00;;;;10427845;28;20288;-77
2022/08/07 16:34:51;;;;;;;1.63;1.20;;;;;25.60;101761.00;;;;10421102;28;20197;-77
2022/08/07 16:40:24;;;;;;;1.25;1.00;;;;;25.60;101761.00;;;;10479830;28;20198;-78
2022/08/07 16:46:02;;;;;;;1.30;1.20;;;;;25.60;101758.00;;;;10467036;28;20194;-77
2022/08/07 16:51:39;;;;;;;3.83;1.80;;;;;25.30;101750.00;;;;10427241;28;20195;-77
2022/08/07 16:57:25;;;;;;;6.45;2.17;;;;;24.80;101748.00;;;;10481496;28;20710;-77
2022/08/07 17:03:38;;;;;;;2.30;1.30;;;;;24.90;101755.00;;;;10430837;28;20434;-77
2022/08/07 17:09:26;;;;;;;2.85;1.50;;;;;25.10;101758.00;;;;10440939;28;20295;-77
2022/08/07 17:14:59;;;;;;;6.47;2.28;;;;;24.80;101748.00;;;;10484840;28;20217;-77
2022/08/07 17:20:07;;;;;;;2.95;2.17;;;;;24.40;101752.00;;;;10432473;28;20756;-77
2022/08/07 17:25:29;;;;;;;4.30;2.33;;;;;24.20;101758.00;;;;10433240;28;20590;-77
2022/08/07 17:31:11;;;;;;;3.60;1.70;;;;;24.10;101759.00;;;;10447445;28;20213;-78
2022/08/07 17:36:25;;;;;;;2.88;1.88;;;;;23.80;101763.00;;;;10424726;28;20633;-77
2022/08/07 17:41:51;;;;;;;4.20;2.00;;;;;23.60;101762.00;;;;10446166;28;20198;-77
2022/08/07 17:47:10;;;;;;;5.55;2.03;;;;;23.30;101760.00;;;;10463935;28;20185;-77
2022/08/07 17:52:35;;;;;;;5.15;2.00;;;;;23.10;101764.00;;;;10419491;28;20204;-77
2022/08/07 17:58:15;;;;;;;5.95;4.78;;;;;23.00;101758.00;;;;10464139;28;20235;-77
2022/08/07 18:03:45;;;;;;;3.03;2.17;;;;;22.80;101768.00;;;;10479235;28;20221;-77
2022/08/07 18:09:17;;;;;;;5.32;2.08;;;;;22.80;101770.00;;;;10455384;28;20224;-78
2022/08/07 18:15:17;;;;;;;2.95;1.92;;;;;22.80;101782.00;;;;10408496;28;20206;-78
2022/08/07 18:21:04;;;;;;;3.63;2.30;;;;;22.80;101781.00;;;;10437988;28;20264;-78
2022/08/07 18:26:38;;;;;;;2.95;2.40;;;;;22.70;101781.00;;;;10424836;28;20623;-77
2022/08/07 18:31:55;;;;;;;2.75;2.33;;;;;22.60;101792.00;;;;10413172;28;20185;-78
2022/08/07 18:37:20;;;;;;;4.80;2.28;;;;;22.40;101804.00;;;;10438012;28;20267;-78
2022/08/07 18:42:48;;;;;;;2.08;1.83;;;;;22.20;101807.00;;;;10425752;28;20193;-78
2022/08/07 18:48:11;;;;;;;2.55;1.70;;;;;21.90;101806.00;;;;10462951;28;20186;-78
2022/08/07 18:53:33;;;;;;;4.35;2.22;;;;;21.70;101804.00;;;;10495140;28;20266;-78
2022/08/07 18:59:04;;;;;;;3.25;1.92;;;;;21.40;101818.00;;;;10413480;28;20549;-78
2022/08/07 19:04:18;;;;;;;5.03;2.00;;;;;21.10;101815.00;;;;10478673;28;20691;-78
2022/08/07 19:09:47;;;;;;;3.08;2.08;;;;;20.90;101826.00;;;;10445582;28;20189;-78
2022/08/07 19:15:17;;;;;;;3.75;2.50;;;;;20.60;101832.00;;;;10482164;28;20663;-78
2022/08/07 19:20:45;;;;;;;2.50;2.10;;;;;20.40;101835.00;;;;10432411;28;20194;-80
2022/08/07 19:26:13;;;;;;;3.70;2.10;;;;;20.20;101845.00;;;;10429858;28;20605;-80
2022/08/07 19:31:50;;;;;;;4.03;1.90;;;;;20.00;101847.00;;;;10461690;28;20292;-81
2022/08/07 19:37:15;;;;;;;4.57;2.10;;;;;19.80;101852.00;;;;10443988;28;20648;-80
2022/08/07 19:42:18;;;;;;;2.95;2.20;;;;;19.70;101869.00;;;;10435592;28;20292;-80
2022/08/07 19:47:32;;;;;;;5.30;2.05;;;;;19.50;101870.00;;;;10463409;28;20213;-81
2022/08/07 19:52:38;;;;;;;2.72;2.05;;;;;19.40;101871.00;;;;10457928;28;20189;-81
2022/08/07 19:57:47;;;;;;;5.47;2.25;;;;;19.30;101877.00;;;;10440543;28;20218;-81
2022/08/07 20:03:15;;;;;;;3.10;2.15;;;;;19.20;101876.00;;;;10452913;28;20235;-81
2022/08/07 20:08:39;;;;;;;4.45;2.72;;;;;19.10;101870.00;;;;10439240;28;20200;-81
2022/08/07 20:13:53;;;;;;;3.70;2.00;;;;;19.00;101885.00;;;;10421090;28;20209;-81
2022/08/07 20:18:57;;;;;;;4.75;2.17;;;;;18.90;101870.00;;;;10403075;28;20259;-81
2022/08/07 20:24:03;;;;;;;2.78;2.03;;;;;18.80;101881.00;;;;10438870;28;20682;-81
2022/08/07 20:29:09;;;;;;;4.15;2.72;;;;;18.70;101879.00;;;;10453465;28;20287;-81
2022/08/07 20:34:34;;;;;;;2.92;2.35;;;;;18.60;101888.00;;;;10438015;28;20329;-81
2022/08/07 20:39:53;;;;;;;2.60;2.40;;;;;18.40;101885.00;;;;10431030;28;20206;-81
2022/08/07 20:45:07;;;;;;;3.10;1.77;;;;;18.30;101893.00;;;;10456211;28;20217;-81
2022/08/07 20:50:30;;;;;;;3.35;2.08;;;;;18.10;101886.00;;;;10425491;28;20190;-81
2022/08/07 20:55:33;;;;;;;4.88;2.58;;;;;18.00;101891.00;;;;10448151;28;20210;-81
2022/08/07 21:00:46;;;;;;;4.15;2.65;;;;;17.90;101886.00;;;;10465427;28;20243;-81
2022/08/07 21:05:52;;;;;;;5.60;2.67;;;;;17.90;101897.00;;;;10433802;28;20900;-81
2022/08/07 21:10:59;;;;;;;5.63;2.50;;;;;17.70;101900.00;;;;10428236;28;20193;-81
2022/08/07 21:16:05;;;;;;;3.83;2.65;;;;;17.60;101900.00;;;;10424187;28;20344;-81
2022/08/07 21:21:08;;;;;;;3.20;2.60;;;;;17.50;101902.00;;;;10433142;28;20189;-81
2022/08/07 21:26:25;;;;;;;7.75;3.13;;;;;17.40;101896.00;;;;10455878;28;20193;-81
2022/08/07 21:31:43;;;;;;;4.13;2.87;;;;;17.20;101902.00;;;;10428938;28;20290;-81
2022/08/07 21:37:32;;;;;;;5.63;2.60;;;;;17.20;101899.00;;;;10465449;28;20627;-81
2022/08/07 21:43:00;;;;;;;4.57;2.80;;;;;17.10;101909.00;;;;10414701;28;20220;-81
2022/08/07 21:48:12;;;;;;;5.30;2.93;;;;;17.00;101913.00;;;;10436404;28;20599;-81
2022/08/07 21:53:37;;;;;;;6.10;3.00;;;;;16.80;101904.00;;;;10408698;28;20202;-81
2022/08/07 21:59:20;;;;;;;7.23;3.23;;;;;16.70;101908.00;;;;10439922;28;20205;-81
2022/08/07 22:04:26;;;;;;;4.07;2.97;;;;;16.60;101900.00;;;;10406215;28;20612;-81
2022/08/07 22:09:34;;;;;;;4.93;2.90;;;;;16.60;101919.00;;;;10439371;28;20192;-81
2022/08/07 22:15:12;;;;;;;5.57;3.40;;;;;16.40;101922.00;;;;10448336;28;20206;-81
2022/08/07 22:20:48;;;;;;;5.07;3.37;;;;;16.30;101932.00;;;;10460093;28;20228;-81
2022/08/07 22:26:27;;;;;;;4.33;3.23;;;;;16.20;101933.00;;;;10446993;28;20272;-81
2022/08/07 22:31:50;;;;;;;6.33;3.63;;;;;16.00;101932.00;;;;10427159;28;20243;-81
2022/08/07 22:37:16;;;;;;;8.10;3.43;;;;;15.90;101949.00;;;;10431143;28;20279;-81
2022/08/07 22:42:25;;;;;;;3.97;3.57;;;;;15.70;101946.00;;;;10424779;28;20209;-81
2022/08/07 22:47:43;;;;;;;4.53;3.50;;;;;15.60;101946.00;;;;10437235;28;20194;-81
2022/08/07 22:53:14;;;;;;;3.83;3.17;;;;;15.50;101955.00;;;;10428329;28;20195;-81
2022/08/07 22:58:46;;;;;;;10.70;5.60;;;;;15.50;101948.00;;;;10445528;28;20213;-81
2022/08/07 23:04:25;;;;;;;5.40;4.13;;;;;15.40;101960.00;;;;10436998;28;20225;-81
2022/08/07 23:10:05;;;;;;;6.90;3.63;;;;;15.30;101954.00;;;;10430387;28;20197;-81
2022/08/07 23:15:46;;;;;;;8.30;3.90;;;;;15.20;101950.00;;;;10405287;28;20641;-81
2022/08/07 23:21:25;;;;;;;8.03;4.10;;;;;15.10;101951.00;;;;10446376;28;20244;-81
2022/08/07 23:26:55;;;;;;;5.47;4.10;;;;;15.00;101943.00;;;;10419453;28;20227;-81
2022/08/07 23:32:28;;;;;;;4.73;3.70;;;;;14.90;101945.00;;;;10412932;28;20707;-81
2022/08/07 23:38:09;;;;;;;8.60;5.00;;;;;14.80;101941.00;;;;10431065;28;20221;-81
2022/08/07 23:43:38;;;;;;;7.43;4.57;;;;;14.70;101936.00;;;;10444001;28;20190;-81
2022/08/07 23:48:55;;;;;;;6.80;4.77;;;;;14.60;101933.00;;;;10444795;28;20213;-81
2022/08/07 23:54:10;;;;;;;6.73;5.10;;;;;14.60;101942.00;;;;10461504;28;20214;-81
